Time;durP1;ratioP1;P1;durP2;ratioP2;P2;SDS_P1;SDS_P2;PMS_P1;PMS_P2;Temp;Humidity;BMP_temperature;BMP_pressure;BME280_temperature;BME280_humidity;BME280_pressure;Samples;Min_cycle;Max_cycle;Signal;HPM_P1;HPM_P2
2023/01/03 00:00:37;;;;;;;0.00;0.00;;;;;;;5.68;100.00;100925.50;6206999;23;20451;-75
2023/01/03 00:03:13;;;;;;;0.00;0.00;;;;;;;5.70;100.00;100913.38;6213073;23;20004;-75
2023/01/03 00:05:41;;;;;;;0.00;0.00;;;;;;;5.70;100.00;100909.84;6210660;23;20041;-74
2023/01/03 00:08:09;;;;;;;0.10;0.10;;;;;;;5.87;100.00;100934.53;6210563;23;20646;-74
2023/01/03 00:10:35;;;;;;;0.00;0.00;;;;;;;5.92;100.00;100934.69;6212239;23;20537;-75
2023/01/03 00:13:01;;;;;;;0.00;0.00;;;;;;;5.98;100.00;100920.25;6208774;23;20005;-74
2023/01/03 00:15:26;;;;;;;0.00;0.00;;;;;;;6.00;100.00;100923.59;6186328;23;20036;-76
2023/01/03 00:17:54;;;;;;;0.00;0.00;;;;;;;6.02;100.00;100926.09;6183536;23;20551;-75
2023/01/03 00:20:21;;;;;;;0.00;0.00;;;;;;;5.95;100.00;100909.81;6212634;23;20015;-74
2023/01/03 00:22:46;;;;;;;0.00;0.00;;;;;;;6.02;100.00;100916.06;6207650;23;20000;-75
2023/01/03 00:25:11;;;;;;;0.10;0.10;;;;;;;6.03;100.00;100906.00;6183157;23;20042;-75
2023/01/03 00:27:37;;;;;;;0.10;0.10;;;;;;;6.00;100.00;100907.31;6211217;23;20001;-75
2023/01/03 00:30:03;;;;;;;0.00;0.00;;;;;;;6.01;100.00;100908.94;6205822;23;20004;-74
2023/01/03 00:32:28;;;;;;;0.10;0.10;;;;;;;5.98;100.00;100903.97;6136052;23;1151501;-75
2023/01/03 00:34:54;;;;;;;0.00;0.00;;;;;;;5.99;100.00;100904.81;6208414;23;20039;-74
2023/01/03 00:37:19;;;;;;;0.10;0.10;;;;;;;5.97;100.00;100912.31;6211984;23;20019;-74
2023/01/03 00:39:44;;;;;;;0.00;0.00;;;;;;;5.89;100.00;100894.44;6182564;23;20011;-74
2023/01/03 00:42:10;;;;;;;0.10;0.10;;;;;;;5.98;100.00;100912.13;6186701;23;20134;-76
2023/01/03 00:44:35;;;;;;;0.00;0.00;;;;;;;5.99;100.00;100911.06;6162361;23;20019;-74
2023/01/03 00:47:01;;;;;;;0.00;0.00;;;;;;;5.94;100.00;100910.88;6157543;23;20001;-74
2023/01/03 00:49:27;;;;;;;0.10;0.10;;;;;;;5.96;100.00;100908.78;6212524;23;20407;-74
2023/01/03 00:51:52;;;;;;;0.00;0.00;;;;;;;5.79;100.00;100888.69;6207325;23;20763;-75
2023/01/03 00:54:19;;;;;;;0.00;0.00;;;;;;;5.77;100.00;100900.59;6187103;23;20489;-76
2023/01/03 00:56:46;;;;;;;0.00;0.00;;;;;;;5.57;100.00;100891.78;6207635;23;20070;-74
2023/01/03 00:59:14;;;;;;;0.00;0.00;;;;;;;5.33;100.00;100880.72;6212499;23;19997;-75
2023/01/03 01:01:51;;;;;;;0.00;0.00;;;;;;;5.03;100.00;100873.19;6209929;23;20035;-76
2023/01/03 01:04:19;;;;;;;0.00;0.00;;;;;;;4.87;100.00;100887.25;6210810;23;20945;-76
2023/01/03 01:06:50;;;;;;;0.00;0.00;;;;;;;4.66;100.00;100875.69;6212754;23;20444;-74
2023/01/03 01:09:19;;;;;;;0.10;0.10;;;;;;;4.48;100.00;100870.13;6208308;23;20453;-75
2023/01/03 01:11:45;;;;;;;0.00;0.00;;;;;;;4.39;100.00;100879.56;6215635;23;20004;-75
2023/01/03 01:14:20;;;;;;;0.00;0.00;;;;;;;4.28;100.00;100881.88;6210020;23;20005;-75
2023/01/03 01:16:54;;;;;;;0.00;0.00;;;;;;;4.22;100.00;100893.56;6211074;23;20011;-76
2023/01/03 01:19:23;;;;;;;0.00;0.00;;;;;;;4.16;100.00;100886.28;6208601;23;20005;-74
2023/01/03 01:21:48;;;;;;;0.10;0.10;;;;;;;4.12;100.00;100890.47;6212912;23;20402;-74
2023/01/03 01:24:16;;;;;;;0.00;0.00;;;;;;;4.06;100.00;100891.28;6185152;23;20009;-75
2023/01/03 01:26:42;;;;;;;0.08;0.08;;;;;;;3.97;100.00;100888.84;6183423;23;20008;-74
2023/01/03 01:29:10;;;;;;;0.00;0.00;;;;;;;3.99;100.00;100888.63;6162692;23;20012;-74
2023/01/03 01:31:36;;;;;;;0.00;0.00;;;;;;;3.96;100.00;100897.16;6208434;23;20099;-76
2023/01/03 01:34:01;;;;;;;0.00;0.00;;;;;;;3.93;100.00;100892.16;6187566;23;20773;-75
2023/01/03 01:36:29;;;;;;;0.00;0.00;;;;;;;3.90;100.00;100898.84;6207850;23;20004;-74
2023/01/03 01:39:04;;;;;;;0.08;0.08;;;;;;;3.97;100.00;100899.66;6212197;23;20008;-74
2023/01/03 01:44:44;;;;;;;0.00;0.00;;;;;;;4.32;100.00;100891.25;6214958;23;20449;-74
2023/01/03 01:47:33;;;;;;;0.10;0.10;;;;;;;4.62;100.00;100879.06;6210366;23;20011;-74
2023/01/03 01:50:23;;;;;;;0.00;0.00;;;;;;;4.83;100.00;100881.44;6208906;23;20052;-75
2023/01/03 01:52:57;;;;;;;0.00;0.00;;;;;;;4.98;100.00;100875.72;6211440;23;20086;-75
2023/01/03 01:55:27;;;;;;;0.00;0.00;;;;;;;4.98;100.00;100862.19;6208811;23;20533;-75
2023/01/03 01:57:53;;;;;;;0.00;0.00;;;;;;;5.07;100.00;100866.28;6212730;23;20031;-76
2023/01/03 02:00:19;;;;;;;0.00;0.00;;;;;;;5.13;100.00;100875.41;6160407;23;20009;-75
2023/01/03 02:02:48;;;;;;;0.00;0.00;;;;;;;5.13;100.00;100863.75;6183842;23;20404;-75
2023/01/03 02:05:15;;;;;;;0.00;0.00;;;;;;;5.21;100.00;100871.59;6210722;23;20039;-74
2023/01/03 02:07:42;;;;;;;0.00;0.00;;;;;;;5.25;100.00;100883.69;6206072;23;20426;-73
2023/01/03 02:10:09;;;;;;;0.00;0.00;;;;;;;5.14;100.00;100854.56;6160087;23;20005;-75
2023/01/03 02:15:33;;;;;;;0.10;0.10;;;;;;;5.39;100.00;100879.81;6212278;23;20019;-74
2023/01/03 02:18:14;;;;;;;0.00;0.00;;;;;;;5.49;100.00;100883.91;6208586;23;20324;-74
2023/01/03 02:20:55;;;;;;;0.00;0.00;;;;;;;5.54;100.00;100881.38;6212039;23;20015;-75
2023/01/03 02:23:32;;;;;;;0.00;0.00;;;;;;;5.57;100.00;100872.81;6206017;23;20469;-75
2023/01/03 02:26:07;;;;;;;0.00;0.00;;;;;;;5.62;100.00;100875.66;6208274;23;20000;-75
2023/01/03 02:29:09;;;;;;;0.00;0.00;;;;;;;5.61;100.00;100882.16;6210088;23;20027;-74
2023/01/03 02:32:00;;;;;;;0.00;0.00;;;;;;;5.58;100.00;100882.59;6209106;23;20044;-75
2023/01/03 02:35:13;;;;;;;0.00;0.00;;;;;;;5.54;100.00;100876.78;6210517;23;20009;-75
2023/01/03 02:38:03;;;;;;;0.00;0.00;;;;;;;5.48;100.00;100876.84;6211514;23;20399;-75
2023/01/03 02:40:41;;;;;;;0.10;0.10;;;;;;;5.41;100.00;100883.13;6212986;23;20054;-75
2023/01/03 02:43:42;;;;;;;0.10;0.10;;;;;;;5.32;100.00;100872.81;6210040;23;20441;-75
2023/01/03 02:46:16;;;;;;;0.00;0.00;;;;;;;5.32;100.00;100876.34;6160157;23;20629;-77
2023/01/03 02:48:54;;;;;;;0.00;0.00;;;;;;;5.36;100.00;100880.28;6209096;23;20011;-75
2023/01/03 02:51:30;;;;;;;0.00;0.00;;;;;;;5.39;100.00;100871.69;6210706;23;20015;-75
2023/01/03 02:53:58;;;;;;;0.00;0.00;;;;;;;5.37;100.00;100867.53;6211460;23;20024;-75
2023/01/03 02:56:34;;;;;;;0.03;0.03;;;;;;;5.42;100.00;100863.09;6211709;23;20008;-74
2023/01/03 02:59:11;;;;;;;0.10;0.10;;;;;;;5.49;100.00;100870.34;6207123;23;20336;-73
2023/01/03 03:01:43;;;;;;;0.00;0.00;;;;;;;5.40;100.00;100859.78;6209663;23;20012;-75
2023/01/03 03:04:10;;;;;;;0.00;0.00;;;;;;;5.36;100.00;100864.00;6207071;23;20004;-74
2023/01/03 03:07:06;;;;;;;0.00;0.00;;;;;;;5.25;100.00;100873.66;6211478;23;20001;-74
2023/01/03 03:09:31;;;;;;;0.10;0.10;;;;;;;5.17;100.00;100865.81;6208496;23;20032;-75
2023/01/03 03:14:51;;;;;;;0.10;0.10;;;;;;;5.20;100.00;100864.53;6209103;23;20047;-75
2023/01/03 03:17:23;;;;;;;0.00;0.00;;;;;;;5.21;100.00;100855.34;6205936;23;20674;-75
2023/01/03 03:25:42;;;;;;;0.00;0.00;;;;;;;5.32;100.00;100860.06;6208655;23;20031;-76
2023/01/03 03:30:59;;;;;;;0.00;0.00;;;;;;;5.44;100.00;100862.06;6211652;23;20023;-76
2023/01/03 03:33:27;;;;;;;0.00;0.00;;;;;;;5.49;100.00;100854.06;6203749;23;20007;-76
2023/01/03 03:36:22;;;;;;;0.00;0.00;;;;;;;5.51;100.00;100860.13;6209629;23;20399;-76
2023/01/03 03:38:48;;;;;;;0.00;0.00;;;;;;;5.55;100.00;100855.94;6201506;23;20062;-75
2023/01/03 03:47:16;;;;;;;0.00;0.00;;;;;;;5.54;100.00;100841.50;6211202;23;20016;-76
2023/01/03 03:49:44;;;;;;;0.00;0.00;;;;;;;5.57;100.00;100837.53;6208430;23;20015;-74
2023/01/03 03:52:16;;;;;;;0.00;0.00;;;;;;;5.59;100.00;100835.41;6208982;23;20039;-76
2023/01/03 03:54:48;;;;;;;0.00;0.00;;;;;;;5.59;100.00;100827.28;6207340;23;20000;-76
2023/01/03 03:57:28;;;;;;;0.00;0.00;;;;;;;5.62;100.00;100834.13;6206202;23;20886;-75
2023/01/03 03:59:58;;;;;;;0.10;0.10;;;;;;;5.57;100.00;100837.53;6208716;23;20001;-76
2023/01/03 04:02:26;;;;;;;0.00;0.00;;;;;;;5.57;100.00;100832.09;6208574;23;20004;-75
2023/01/03 04:04:58;;;;;;;0.08;0.08;;;;;;;5.58;100.00;100831.06;6205852;23;20088;-75
2023/01/03 04:07:24;;;;;;;0.00;0.00;;;;;;;5.58;100.00;100822.91;6209624;23;20347;-76
2023/01/03 04:09:49;;;;;;;0.00;0.00;;;;;;;5.56;100.00;100819.59;6205823;23;20004;-74
2023/01/03 04:12:15;;;;;;;0.00;0.00;;;;;;;5.57;100.00;100818.53;6208820;23;20004;-75
2023/01/03 04:14:40;;;;;;;0.00;0.00;;;;;;;5.49;100.00;100813.38;6157139;23;20008;-74
2023/01/03 04:17:06;;;;;;;0.08;0.08;;;;;;;5.44;100.00;100821.38;6159436;23;20331;-76
2023/01/03 04:19:31;;;;;;;0.03;0.03;;;;;;;5.35;100.00;100816.22;6185493;23;20494;-76
2023/01/03 04:21:57;;;;;;;0.00;0.00;;;;;;;5.34;100.00;100821.88;6181047;23;20018;-74
2023/01/03 04:24:22;;;;;;;0.00;0.00;;;;;;;5.33;100.00;100815.63;6184583;23;20340;-76
2023/01/03 04:26:48;;;;;;;0.00;0.00;;;;;;;5.26;100.00;100806.72;6207793;23;20316;-75
2023/01/03 04:29:13;;;;;;;0.00;0.00;;;;;;;5.30;100.00;100809.78;6210737;23;20792;-75
2023/01/03 04:31:39;;;;;;;0.00;0.00;;;;;;;5.31;100.00;100806.03;6207330;23;20021;-74
2023/01/03 04:34:04;;;;;;;0.00;0.00;;;;;;;5.37;100.00;100813.28;6158391;23;20462;-75
2023/01/03 04:36:30;;;;;;;0.10;0.10;;;;;;;5.36;100.00;100809.75;6161551;23;20008;-75
2023/01/03 04:38:55;;;;;;;0.00;0.00;;;;;;;5.35;100.00;100813.50;6183132;23;20005;-75
2023/01/03 04:41:21;;;;;;;0.05;0.05;;;;;;;5.36;100.00;100809.75;6185066;23;20009;-76
2023/01/03 04:44:01;;;;;;;0.00;0.00;;;;;;;5.36;100.00;100804.31;6206808;23;20107;-75
2023/01/03 04:46:35;;;;;;;0.00;0.00;;;;;;;5.37;100.00;100806.00;6188168;23;20012;-75
2023/01/03 04:49:01;;;;;;;0.00;0.00;;;;;;;5.42;100.00;100802.63;6205873;23;20034;-75
2023/01/03 04:51:27;;;;;;;0.10;0.10;;;;;;;5.39;100.00;100798.47;6209908;23;20119;-76
2023/01/03 04:53:53;;;;;;;0.00;0.00;;;;;;;5.42;100.00;100795.28;6180579;23;20004;-74
2023/01/03 04:56:31;;;;;;;0.10;0.10;;;;;;;5.45;100.00;100790.47;6210929;23;20075;-75
2023/01/03 04:58:57;;;;;;;0.00;0.00;;;;;;;5.50;100.00;100793.34;6210495;23;20001;-74
2023/01/03 05:01:23;;;;;;;0.00;0.00;;;;;;;5.53;100.00;100787.47;6210297;23;20001;-74
2023/01/03 05:03:49;;;;;;;0.00;0.00;;;;;;;5.63;100.00;100792.41;6211784;23;20016;-74
2023/01/03 05:06:15;;;;;;;0.00;0.00;;;;;;;5.63;100.00;100776.94;6181034;23;20091;-75
2023/01/03 05:08:45;;;;;;;0.00;0.00;;;;;;;5.68;100.00;100789.81;6211959;23;20000;-75
2023/01/03 05:11:11;;;;;;;0.00;0.00;;;;;;;5.68;100.00;100790.69;6213125;23;20009;-75
2023/01/03 05:13:36;;;;;;;0.00;0.00;;;;;;;5.62;100.00;100780.69;6193047;23;20071;-74
2023/01/03 05:16:07;;;;;;;0.00;0.00;;;;;;;5.66;100.00;100787.34;6210109;23;20001;-74
2023/01/03 05:18:33;;;;;;;0.00;0.00;;;;;;;5.64;100.00;100789.47;6211792;23;20035;-74
2023/01/03 05:26:45;;;;;;;0.00;0.00;;;;;;;5.85;100.00;100781.94;6187506;23;20146;-74
2023/01/03 05:29:12;;;;;;;0.00;0.00;;;;;;;5.92;100.00;100777.25;6211165;23;20135;-73
2023/01/03 05:31:37;;;;;;;0.10;0.10;;;;;;;6.00;100.00;100771.56;6205920;23;20025;-73
2023/01/03 05:34:03;;;;;;;0.00;0.00;;;;;;;6.03;100.00;100771.13;6185655;23;20008;-75
2023/01/03 05:36:28;;;;;;;0.00;0.00;;;;;;;6.07;100.00;100775.00;6180969;23;20084;-74
2023/01/03 05:38:54;;;;;;;0.00;0.00;;;;;;;6.11;100.00;100767.25;6210321;23;20828;-74
2023/01/03 05:44:04;;;;;;;0.10;0.10;;;;;;;6.25;100.00;100751.59;6179432;23;20016;-74
2023/01/03 05:46:30;;;;;;;0.03;0.03;;;;;;;6.33;100.00;100770.31;6208991;23;20013;-75
2023/01/03 05:48:56;;;;;;;0.00;0.00;;;;;;;6.39;100.00;100766.66;6208925;23;20005;-75
2023/01/03 05:51:21;;;;;;;0.00;0.00;;;;;;;6.43;100.00;100759.72;6161272;23;20005;-76
2023/01/03 05:53:46;;;;;;;0.00;0.00;;;;;;;6.51;100.00;100763.19;6182771;23;20445;-74
2023/01/03 05:56:12;;;;;;;0.00;0.00;;;;;;;6.60;100.00;100753.63;6182133;23;20104;-75
2023/01/03 05:58:37;;;;;;;0.00;0.00;;;;;;;6.64;100.00;100757.53;6161742;23;20008;-74
2023/01/03 06:01:13;;;;;;;0.00;0.00;;;;;;;6.70;100.00;100753.06;6181435;23;20403;-74
2023/01/03 06:03:42;;;;;;;0.00;0.00;;;;;;;6.74;100.00;100749.66;6212149;23;20419;-75
2023/01/03 06:06:12;;;;;;;0.00;0.00;;;;;;;6.84;100.00;100759.16;6208322;23;20000;-75
2023/01/03 06:08:38;;;;;;;0.10;0.10;;;;;;;6.95;100.00;100750.16;6161824;23;20428;-74
2023/01/03 06:11:10;;;;;;;0.00;0.00;;;;;;;7.07;100.00;100744.78;6181167;23;20846;-74
2023/01/03 06:13:35;;;;;;;0.00;0.00;;;;;;;7.18;100.00;100743.94;6211918;23;20012;-74
2023/01/03 06:18:47;;;;;;;0.10;0.10;;;;;;;7.40;100.00;100741.44;6211854;23;20446;-75
2023/01/03 06:21:13;;;;;;;0.10;0.10;;;;;;;7.47;100.00;100725.81;6156758;23;20019;-75
2023/01/03 06:23:38;;;;;;;0.00;0.00;;;;;;;7.49;100.00;100723.72;6209903;23;20000;-75
2023/01/03 06:26:04;;;;;;;0.00;0.00;;;;;;;7.57;100.00;100738.03;6160101;23;20091;-75
2023/01/03 06:28:29;;;;;;;0.00;0.00;;;;;;;7.66;100.00;100722.97;6206823;23;20009;-75
2023/01/03 06:30:54;;;;;;;0.00;0.00;;;;;;;7.62;100.00;100710.91;6160819;23;20104;-75
2023/01/03 06:33:20;;;;;;;0.00;0.00;;;;;;;7.67;100.00;100719.19;6155343;23;20035;-74
2023/01/03 06:35:45;;;;;;;0.00;0.00;;;;;;;7.69;100.00;100714.31;6161278;23;20015;-74
2023/01/03 06:38:11;;;;;;;0.00;0.00;;;;;;;7.73;100.00;100718.22;6208038;23;20062;-74
2023/01/03 06:40:36;;;;;;;0.00;0.00;;;;;;;7.80;100.00;100721.66;6211199;23;20031;-74
2023/01/03 06:43:01;;;;;;;0.00;0.00;;;;;;;7.83;100.00;100717.63;6185624;23;20001;-75
2023/01/03 06:53:41;;;;;;;0.00;0.00;;;;;;;7.85;100.00;100723.66;6208266;23;20042;-74
2023/01/03 06:56:07;;;;;;;0.00;0.00;;;;;;;7.88;100.00;100722.34;6180381;23;20043;-75
2023/01/03 06:58:34;;;;;;;0.00;0.00;;;;;;;7.90;100.00;100717.47;6209048;23;20000;-74
2023/01/03 07:01:21;;;;;;;0.00;0.00;;;;;;;7.90;100.00;100722.91;6185864;23;20009;-83
2023/01/03 07:03:46;;;;;;;0.00;0.00;;;;;;;7.83;100.00;100707.53;6207191;23;20064;-83
2023/01/03 07:06:14;;;;;;;0.00;0.00;;;;;;;7.80;100.00;100696.31;6213780;23;20001;-84
2023/01/03 07:08:39;;;;;;;0.00;0.00;;;;;;;7.84;100.00;100698.31;6209719;23;20055;-77
2023/01/03 07:11:05;;;;;;;0.00;0.00;;;;;;;7.85;100.00;100699.97;6205765;23;20008;-76
2023/01/03 07:16:18;;;;;;;0.00;0.00;;;;;;;7.89;100.00;100694.88;6208026;23;20014;-76
2023/01/03 07:18:54;;;;;;;0.00;0.00;;;;;;;7.94;100.00;100696.88;6209670;23;20005;-76
2023/01/03 07:21:40;;;;;;;;;;;;;;;;;;;;;
2023/01/03 07:24:06;;;;;;;0.00;0.00;;;;;;;7.84;100.00;100684.72;6211838;23;20376;-75
2023/01/03 07:26:33;;;;;;;0.00;0.00;;;;;;;8.00;100.00;100704.06;6210304;23;20076;-75
2023/01/03 07:29:00;;;;;;;0.00;0.00;;;;;;;8.04;100.00;100702.50;6209376;23;19997;-75
2023/01/03 07:31:26;;;;;;;0.10;0.10;;;;;;;8.01;100.00;100692.91;6203778;23;20020;-72
2023/01/03 07:33:56;;;;;;;0.00;0.00;;;;;;;8.02;100.00;100677.44;6211993;23;20027;-80
2023/01/03 07:36:21;;;;;;;0.00;0.00;;;;;;;8.04;100.00;100681.56;6207429;23;20095;-77
2023/01/03 07:38:47;;;;;;;0.00;0.00;;;;;;;8.03;100.00;100689.94;6206428;23;20447;-75
2023/01/03 07:41:14;;;;;;;0.00;0.00;;;;;;;8.03;100.00;100668.16;6210748;23;20013;-75
2023/01/03 07:43:50;;;;;;;0.00;0.00;;;;;;;8.12;100.00;100693.97;6208227;23;20323;-75
2023/01/03 07:46:35;;;;;;;0.10;0.10;;;;;;;7.99;100.00;100659.66;6209421;23;20023;-73
2023/01/03 07:49:01;;;;;;;0.00;0.00;;;;;;;8.04;100.00;100664.38;6211009;23;20391;-73
2023/01/03 07:51:27;;;;;;;0.00;0.00;;;;;;;8.12;100.00;100685.78;6183750;23;20082;-73
2023/01/03 07:53:53;;;;;;;0.00;0.00;;;;;;;8.07;100.00;100669.34;6178911;23;20001;-73
2023/01/03 07:56:20;;;;;;;0.00;0.00;;;;;;;8.11;100.00;100665.06;6183828;23;20027;-77
2023/01/03 07:58:56;;;;;;;0.00;0.00;;;;;;;8.10;100.00;100685.19;6208533;23;20088;-75
2023/01/03 08:01:23;;;;;;;0.00;0.00;;;;;;;8.06;100.00;100659.53;6214496;23;20007;-74
2023/01/03 08:03:49;;;;;;;0.00;0.00;;;;;;;8.08;100.00;100671.00;6210956;23;20020;-80
2023/01/03 08:06:21;;;;;;;0.00;0.00;;;;;;;8.09;100.00;100656.31;6207799;23;20428;-75
2023/01/03 08:13:16;;;;;;;0.00;0.00;;;;;;;8.12;100.00;100677.63;6210545;23;20015;-73
2023/01/03 08:14:20;;;;;;;0.00;0.00;;;;;;;8.06;100.00;100673.16;6205800;23;20066;-74
2023/01/03 08:16:46;;;;;;;0.10;0.10;;;;;;;8.08;100.00;100659.28;6207199;23;20016;-74
2023/01/03 08:19:11;;;;;;;0.00;0.00;;;;;;;8.05;100.00;100671.50;6158966;23;20005;-73
2023/01/03 08:21:38;;;;;;;0.00;0.00;;;;;;;8.08;100.00;100671.00;6178800;23;20013;-74
2023/01/03 08:24:04;;;;;;;0.00;0.00;;;;;;;8.09;100.00;100671.81;6157714;23;20012;-74
2023/01/03 08:26:29;;;;;;;0.00;0.00;;;;;;;8.08;100.00;100668.28;6179872;23;20015;-74
2023/01/03 08:28:54;;;;;;;0.00;0.00;;;;;;;8.13;100.00;100671.09;6158828;23;20083;-73
2023/01/03 08:31:24;;;;;;;0.00;0.00;;;;;;;8.12;100.00;100669.44;6152808;23;20377;-73
2023/01/03 08:33:56;;;;;;;0.00;0.00;;;;;;;8.18;100.00;100684.00;6153547;23;20011;-74
2023/01/03 08:36:22;;;;;;;0.00;0.00;;;;;;;8.18;100.00;100684.00;6174558;23;20004;-74
2023/01/03 08:38:52;;;;;;;0.00;0.00;;;;;;;8.13;100.00;100667.53;6180411;23;19997;-75
2023/01/03 08:41:23;;;;;;;0.00;0.00;;;;;;;8.23;100.00;100685.97;6154980;23;20401;-75
2023/01/03 08:43:48;;;;;;;0.00;0.00;;;;;;;8.24;100.00;100674.03;6175666;23;20013;-74
2023/01/03 08:46:16;;;;;;;0.03;0.03;;;;;;;8.26;100.00;100678.13;6129879;23;20428;-74
2023/01/03 08:48:43;;;;;;;0.00;0.00;;;;;;;8.27;100.00;100674.34;6172753;23;20013;-74
2023/01/03 08:51:09;;;;;;;0.00;0.00;;;;;;;8.33;100.00;100691.63;6161541;23;20047;-75
2023/01/03 08:53:35;;;;;;;0.10;0.10;;;;;;;8.31;100.00;100670.06;6178032;23;20013;-75
2023/01/03 08:56:11;;;;;;;0.00;0.00;;;;;;;8.28;100.00;100664.25;6150447;23;20087;-75
2023/01/03 08:58:36;;;;;;;0.00;0.00;;;;;;;8.27;100.00;100651.72;6151622;23;20012;-74
2023/01/03 09:01:02;;;;;;;0.00;0.00;;;;;;;8.31;100.00;100664.63;6152366;23;20636;-75
2023/01/03 09:03:30;;;;;;;0.00;0.00;;;;;;;8.29;100.00;100660.47;6154147;23;20636;-75
2023/01/03 09:06:00;;;;;;;0.00;0.00;;;;;;;8.27;100.00;100662.63;6127768;23;20017;-75
2023/01/03 09:08:26;;;;;;;0.00;0.00;;;;;;;8.29;100.00;100650.41;6178160;23;20009;-76
2023/01/03 09:10:51;;;;;;;0.00;0.00;;;;;;;8.33;100.00;100684.25;6179417;23;20017;-75
2023/01/03 09:13:16;;;;;;;0.00;0.00;;;;;;;8.29;100.00;100660.47;6125769;23;20020;-74
2023/01/03 09:15:44;;;;;;;0.10;0.10;;;;;;;8.38;100.00;100675.34;6156897;23;20012;-75
2023/01/03 09:18:09;;;;;;;0.00;0.00;;;;;;;8.34;100.00;100674.22;6174339;23;20001;-75
2023/01/03 09:20:35;;;;;;;0.00;0.00;;;;;;;8.36;100.00;100663.88;6122296;23;20095;-75
2023/01/03 09:23:00;;;;;;;0.10;0.10;;;;;;;8.38;100.00;100667.16;6176996;23;20013;-75
2023/01/03 09:25:26;;;;;;;0.00;0.00;;;;;;;8.36;100.00;100656.50;6154672;23;20147;-75
2023/01/03 09:27:51;;;;;;;0.00;0.00;;;;;;;8.39;100.00;100660.66;6154088;23;20428;-76
2023/01/03 09:30:18;;;;;;;0.00;0.00;;;;;;;8.32;100.00;100649.09;6172837;23;20013;-75
2023/01/03 09:32:44;;;;;;;0.00;0.00;;;;;;;8.43;100.00;100659.09;6229769;23;20451;-74
2023/01/03 09:35:10;;;;;;;0.00;0.00;;;;;;;8.42;100.00;100653.91;6180598;23;20019;-73
2023/01/03 09:37:35;;;;;;;0.00;0.00;;;;;;;8.44;100.00;100651.75;6182359;23;20012;-75
2023/01/03 09:40:02;;;;;;;0.00;0.00;;;;;;;8.44;100.00;100647.16;6205103;23;20016;-74
2023/01/03 09:45:27;;;;;;;0.00;0.00;;;;;;;8.46;100.00;100639.56;6204792;23;20015;-75
2023/01/03 09:47:53;;;;;;;0.10;0.10;;;;;;;8.53;100.00;100651.13;6210132;23;20008;-74
2023/01/03 09:50:22;;;;;;;0.00;0.00;;;;;;;8.60;100.00;100650.13;6181230;23;20004;-74
2023/01/03 10:05:16;;;;;;;0.00;0.00;;;;;;;8.60;100.00;100648.25;6213037;23;20346;-76
2023/01/03 10:08:00;;;;;;;0.00;0.00;;;;;;;8.63;100.00;100653.22;6207402;23;20005;-76
2023/01/03 10:10:28;;;;;;;0.10;0.10;;;;;;;8.63;100.00;100655.09;6209549;23;20087;-75
2023/01/03 10:13:23;;;;;;;0.00;0.00;;;;;;;8.60;100.00;100639.22;6205351;23;20024;-75
2023/01/03 10:16:12;;;;;;;0.10;0.10;;;;;;;8.59;100.00;100659.41;6204738;23;20012;-76
2023/01/03 10:19:02;;;;;;;0.00;0.00;;;;;;;8.62;100.00;100643.38;6209567;23;20003;-74
2023/01/03 10:21:58;;;;;;;0.10;0.10;;;;;;;8.65;100.00;100658.41;6204794;23;20008;-75
2023/01/03 10:24:29;;;;;;;0.10;0.10;;;;;;;8.63;100.00;100625.09;6207197;23;20008;-76
2023/01/03 10:27:03;;;;;;;0.00;0.00;;;;;;;8.66;100.00;100638.22;6209286;23;20001;-75
2023/01/03 10:29:29;;;;;;;;;;;;;;;8.67;100.00;100635.28;6209653;23;20054;-75
2023/01/03 10:32:31;;;;;;;0.00;0.00;;;;;;;8.69;100.00;100630.41;6210560;23;20362;-75
2023/01/03 10:35:26;;;;;;;0.00;0.00;;;;;;;8.72;100.00;100626.34;6206500;23;20008;-75
2023/01/03 10:37:53;;;;;;;0.10;0.10;;;;;;;8.70;100.00;100609.41;6208692;23;20024;-75
2023/01/03 10:40:19;;;;;;;0.00;0.00;;;;;;;8.74;100.00;100619.56;6208070;23;20061;-75
2023/01/03 10:42:48;;;;;;;0.00;0.00;;;;;;;8.79;100.00;100613.38;6184968;23;20410;-76
2023/01/03 10:45:17;;;;;;;0.00;0.00;;;;;;;8.79;100.00;100620.72;6182014;23;20327;-75
2023/01/03 10:47:42;;;;;;;0.00;0.00;;;;;;;8.85;100.00;100639.66;6211700;23;20054;-76
2023/01/03 10:50:21;;;;;;;0.00;0.00;;;;;;;8.83;100.00;100628.13;6182997;23;20013;-76
2023/01/03 10:52:48;;;;;;;0.00;0.00;;;;;;;8.83;100.00;100639.06;6210548;23;20458;-75
2023/01/03 10:55:22;;;;;;;0.00;0.00;;;;;;;8.77;100.00;100629.16;6207990;23;20004;-76
2023/01/03 10:57:56;;;;;;;0.00;0.00;;;;;;;8.85;100.00;100639.66;6210559;23;20100;-76
2023/01/03 11:00:30;;;;;;;0.00;0.00;;;;;;;8.84;100.00;100627.06;6208228;23;20004;-79
2023/01/03 11:03:08;;;;;;;0.00;0.00;;;;;;;8.91;100.00;100619.53;6212640;23;20016;-77
2023/01/03 11:05:35;;;;;;;0.00;0.00;;;;;;;8.83;100.00;100630.88;6207526;23;20099;-77
2023/01/03 11:08:12;;;;;;;0.00;0.00;;;;;;;8.94;100.00;100625.59;6209193;23;20000;-76
2023/01/03 11:10:48;;;;;;;0.10;0.10;;;;;;;8.96;100.00;100637.06;6211498;23;20370;-77
2023/01/03 11:13:34;;;;;;;0.00;0.00;;;;;;;8.96;100.00;100620.69;6209076;23;20004;-77
2023/01/03 11:16:19;;;;;;;0.00;0.00;;;;;;;9.00;100.00;100605.50;6204844;23;20011;-76
2023/01/03 11:19:00;;;;;;;0.10;0.10;;;;;;;8.89;100.00;100594.44;6209517;23;20490;-77
2023/01/03 11:21:36;;;;;;;0.00;0.00;;;;;;;8.95;100.00;100657.22;6207971;23;20011;-76
2023/01/03 11:24:29;;;;;;;0.00;0.00;;;;;;;9.06;100.00;100609.94;6211700;23;20001;-76
2023/01/03 11:27:09;;;;;;;0.00;0.00;;;;;;;8.99;100.00;100598.38;6204934;23;20008;-76
2023/01/03 11:29:58;;;;;;;0.00;0.00;;;;;;;9.08;100.00;100597.72;6211165;23;20080;-76
2023/01/03 11:32:42;;;;;;;0.00;0.00;;;;;;;9.08;100.00;100629.59;6206278;23;20728;-76
2023/01/03 11:35:34;;;;;;;0.10;0.10;;;;;;;9.15;100.00;100593.97;6209716;23;20011;-76
2023/01/03 11:38:33;;;;;;;0.00;0.00;;;;;;;9.05;100.00;100578.28;6208749;23;19996;-77
2023/01/03 11:41:54;;;;;;;0.00;0.00;;;;;;;9.16;100.00;100587.44;6205239;23;20031;-76
2023/01/03 11:44:30;;;;;;;0.00;0.00;;;;;;;9.16;100.00;100607.34;6172028;23;20008;-77
2023/01/03 11:47:16;;;;;;;0.00;0.00;;;;;;;9.15;100.00;100585.78;6209132;23;20359;-78
2023/01/03 11:50:01;;;;;;;0.10;0.10;;;;;;;9.18;100.00;100566.97;6207823;23;20039;-77
2023/01/03 11:52:35;;;;;;;0.00;0.00;;;;;;;9.25;100.00;100581.25;6210762;23;20093;-76
2023/01/03 11:55:39;;;;;;;0.00;0.00;;;;;;;9.30;100.00;100566.03;6211705;23;20031;-77
2023/01/03 11:58:46;;;;;;;0.08;0.08;;;;;;;9.38;100.00;100590.16;6195183;23;20075;-76
2023/01/03 12:01:26;;;;;;;0.03;0.03;;;;;;;9.38;100.00;100558.22;6152446;23;20087;-77
2023/01/03 12:04:28;;;;;;;0.00;0.00;;;;;;;9.44;100.00;100581.78;6202151;23;20012;-76
2023/01/03 12:07:15;;;;;;;0.00;0.00;;;;;;;9.56;100.00;100537.13;6184726;23;20030;-77
2023/01/03 12:10:04;;;;;;;0.00;0.00;;;;;;;9.63;100.00;100536.94;6207284;23;20009;-77
2023/01/03 12:12:51;;;;;;;0.00;0.00;;;;;;;9.68;100.00;100531.53;6206431;23;20005;-76
2023/01/03 12:15:50;;;;;;;0.10;0.10;;;;;;;9.65;100.00;100542.97;6212226;23;20008;-77
2023/01/03 12:18:43;;;;;;;0.00;0.00;;;;;;;9.68;100.00;100534.25;6209638;23;20000;-75
2023/01/03 12:21:45;;;;;;;0.00;0.00;;;;;;;9.64;100.00;100552.22;6206122;23;20000;-76
2023/01/03 12:24:43;;;;;;;0.10;0.10;;;;;;;9.56;100.00;100521.59;6211665;23;20082;-75
2023/01/03 12:27:34;;;;;;;0.10;0.10;;;;;;;9.60;100.00;100519.97;6212917;23;20007;-76
2023/01/03 12:30:18;;;;;;;0.00;0.00;;;;;;;9.60;100.00;100521.91;6203044;23;20000;-77
2023/01/03 12:32:54;;;;;;;0.05;0.05;;;;;;;9.54;100.00;100506.56;6210538;23;20325;-76
2023/01/03 12:35:28;;;;;;;0.10;0.10;;;;;;;9.58;100.00;100519.44;6208877;23;20032;-75
2023/01/03 12:37:56;;;;;;;0.00;0.00;;;;;;;9.61;100.00;100510.72;6209979;23;20005;-74
2023/01/03 12:40:38;;;;;;;0.00;0.00;;;;;;;9.73;100.00;100516.03;6211201;23;20001;-76
2023/01/03 12:43:18;;;;;;;0.00;0.00;;;;;;;9.71;100.00;100512.72;6205875;23;20063;-76
2023/01/03 12:45:52;;;;;;;0.00;0.00;;;;;;;9.65;100.00;100505.59;6209805;23;20001;-76
2023/01/03 12:48:23;;;;;;;0.10;0.10;;;;;;;9.67;100.00;100517.06;6207736;23;20000;-76
2023/01/03 12:50:53;;;;;;;0.00;0.00;;;;;;;9.75;100.00;100502.94;6210793;23;20008;-77
2023/01/03 12:53:44;;;;;;;0.00;0.00;;;;;;;9.76;100.00;100506.50;6207175;23;20016;-76